sensor_id;sensor_type;location;lat;lon;timestamp;temperature;humidity
57753;DHT22;43583;53.132;6.574;2024-03-22T00:00:31;9.70;99.90
57753;DHT22;43583;53.132;6.574;2024-03-22T00:02:59;9.70;99.90
57753;DHT22;43583;53.132;6.574;2024-03-22T00:05:24;9.80;99.90
57753;DHT22;43583;53.132;6.574;2024-03-22T00:07:50;9.80;99.90
57753;DHT22;43583;53.132;6.574;2024-03-22T00:10:16;9.80;99.90
57753;DHT22;43583;53.132;6.574;2024-03-22T00:12:41;9.80;99.90
57753;DHT22;43583;53.132;6.574;2024-03-22T00:15:07;9.80;99.90
57753;DHT22;43583;53.132;6.574;2024-03-22T00:17:33;9.80;99.90
57753;DHT22;43583;53.132;6.574;2024-03-22T00:20:00;9.80;99.90
57753;DHT22;43583;53.132;6.574;2024-03-22T00:22:26;9.80;99.90
57753;DHT22;43583;53.132;6.574;2024-03-22T00:24:51;9.90;99.90
57753;DHT22;43583;53.132;6.574;2024-03-22T00:27:17;9.90;99.90
57753;DHT22;43583;53.132;6.574;2024-03-22T00:29:43;9.90;99.90
57753;DHT22;43583;53.132;6.574;2024-03-22T00:32:09;9.90;99.90
57753;DHT22;43583;53.132;6.574;2024-03-22T00:34:35;10.00;99.90
57753;DHT22;43583;53.132;6.574;2024-03-22T00:37:00;10.00;99.90
57753;DHT22;43583;53.132;6.574;2024-03-22T00:39:26;9.90;99.90
57753;DHT22;43583;53.132;6.574;2024-03-22T00:41:52;10.00;99.90
57753;DHT22;43583;53.132;6.574;2024-03-22T00:44:17;10.00;99.90
57753;DHT22;43583;53.132;6.574;2024-03-22T00:46:43;10.00;99.90
57753;DHT22;43583;53.132;6.574;2024-03-22T00:49:09;10.00;99.90
57753;DHT22;43583;53.132;6.574;2024-03-22T00:51:34;10.00;99.90
57753;DHT22;43583;53.132;6.574;2024-03-22T00:54:00;10.00;99.90
57753;DHT22;43583;53.132;6.574;2024-03-22T00:56:26;10.00;99.90
57753;DHT22;43583;53.132;6.574;2024-03-22T00:58:51;10.00;99.90
57753;DHT22;43583;53.132;6.574;2024-03-22T01:01:17;10.00;99.90
57753;DHT22;43583;53.132;6.574;2024-03-22T01:03:43;10.00;99.90
57753;DHT22;43583;53.132;6.574;2024-03-22T01:06:08;10.00;99.90
57753;DHT22;43583;53.132;6.574;2024-03-22T01:08:34;10.00;99.90
57753;DHT22;43583;53.132;6.574;2024-03-22T01:11:00;10.00;99.90
57753;DHT22;43583;53.132;6.574;2024-03-22T01:13:26;10.00;99.90
57753;DHT22;43583;53.132;6.574;2024-03-22T01:15:52;10.00;99.90
57753;DHT22;43583;53.132;6.574;2024-03-22T01:18:18;10.10;99.90
57753;DHT22;43583;53.132;6.574;2024-03-22T01:20:43;10.10;99.90
57753;DHT22;43583;53.132;6.574;2024-03-22T01:23:09;10.10;99.90
57753;DHT22;43583;53.132;6.574;2024-03-22T01:25:35;10.10;99.90
57753;DHT22;43583;53.132;6.574;2024-03-22T01:28:01;10.10;99.90
57753;DHT22;43583;53.132;6.574;2024-03-22T01:30:26;10.10;99.90
57753;DHT22;43583;53.132;6.574;2024-03-22T01:32:56;10.10;99.90
57753;DHT22;43583;53.132;6.574;2024-03-22T01:35:21;10.10;99.90
57753;DHT22;43583;53.132;6.574;2024-03-22T01:37:47;10.00;99.90
57753;DHT22;43583;53.132;6.574;2024-03-22T01:40:13;10.10;99.90
57753;DHT22;43583;53.132;6.574;2024-03-22T01:42:39;10.10;99.90
57753;DHT22;43583;53.132;6.574;2024-03-22T01:45:05;10.10;99.90
57753;DHT22;43583;53.132;6.574;2024-03-22T01:47:31;10.10;99.90
57753;DHT22;43583;53.132;6.574;2024-03-22T01:49:57;10.10;99.90
57753;DHT22;43583;53.132;6.574;2024-03-22T01:52:23;10.10;99.90
57753;DHT22;43583;53.132;6.574;2024-03-22T01:54:50;10.20;99.90
57753;DHT22;43583;53.132;6.574;2024-03-22T01:57:15;10.20;99.90
57753;DHT22;43583;53.132;6.574;2024-03-22T01:59:41;10.20;99.90
57753;DHT22;43583;53.132;6.574;2024-03-22T02:02:07;10.20;99.90
57753;DHT22;43583;53.132;6.574;2024-03-22T02:04:33;10.20;99.90
57753;DHT22;43583;53.132;6.574;2024-03-22T02:06:58;10.20;99.90
57753;DHT22;43583;53.132;6.574;2024-03-22T02:09:25;10.20;99.90
57753;DHT22;43583;53.132;6.574;2024-03-22T02:11:51;10.20;99.90
57753;DHT22;43583;53.132;6.574;2024-03-22T02:14:16;10.30;99.90
57753;DHT22;43583;53.132;6.574;2024-03-22T02:16:42;10.30;99.90
57753;DHT22;43583;53.132;6.574;2024-03-22T02:19:08;10.30;99.90
57753;DHT22;43583;53.132;6.574;2024-03-22T02:21:34;10.30;99.90
57753;DHT22;43583;53.132;6.574;2024-03-22T02:24:00;10.30;99.90
57753;DHT22;43583;53.132;6.574;2024-03-22T02:26:26;10.30;99.90
57753;DHT22;43583;53.132;6.574;2024-03-22T02:28:51;10.40;99.90
57753;DHT22;43583;53.132;6.574;2024-03-22T02:31:17;10.40;99.90
57753;DHT22;43583;53.132;6.574;2024-03-22T02:33:43;10.40;99.90
57753;DHT22;43583;53.132;6.574;2024-03-22T02:36:09;10.40;99.90
57753;DHT22;43583;53.132;6.574;2024-03-22T02:38:35;10.40;99.90
57753;DHT22;43583;53.132;6.574;2024-03-22T02:41:00;10.40;99.90
57753;DHT22;43583;53.132;6.574;2024-03-22T02:43:26;10.40;99.90
57753;DHT22;43583;53.132;6.574;2024-03-22T02:45:52;10.40;99.90
57753;DHT22;43583;53.132;6.574;2024-03-22T02:48:17;10.40;99.90
57753;DHT22;43583;53.132;6.574;2024-03-22T02:50:43;10.40;99.90
57753;DHT22;43583;53.132;6.574;2024-03-22T02:53:09;10.40;99.90
57753;DHT22;43583;53.132;6.574;2024-03-22T02:55:39;10.40;99.90
57753;DHT22;43583;53.132;6.574;2024-03-22T02:58:05;10.40;99.90
57753;DHT22;43583;53.132;6.574;2024-03-22T03:00:35;10.40;99.90
57753;DHT22;43583;53.132;6.574;2024-03-22T03:03:01;10.40;99.90
57753;DHT22;43583;53.132;6.574;2024-03-22T03:05:27;10.40;99.90
57753;DHT22;43583;53.132;6.574;2024-03-22T03:07:53;10.50;99.90
57753;DHT22;43583;53.132;6.574;2024-03-22T03:10:19;10.50;99.90
57753;DHT22;43583;53.132;6.574;2024-03-22T03:12:44;10.50;99.90
57753;DHT22;43583;53.132;6.574;2024-03-22T03:15:10;10.50;99.90
57753;DHT22;43583;53.132;6.574;2024-03-22T03:17:36;10.50;99.90
57753;DHT22;43583;53.132;6.574;2024-03-22T03:20:01;10.50;99.90
57753;DHT22;43583;53.132;6.574;2024-03-22T03:22:27;10.50;99.90
57753;DHT22;43583;53.132;6.574;2024-03-22T03:24:53;10.50;99.90
57753;DHT22;43583;53.132;6.574;2024-03-22T03:27:19;10.50;99.90
57753;DHT22;43583;53.132;6.574;2024-03-22T03:29:44;10.50;99.90
57753;DHT22;43583;53.132;6.574;2024-03-22T03:32:10;10.50;99.90
57753;DHT22;43583;53.132;6.574;2024-03-22T03:34:35;10.50;99.90
57753;DHT22;43583;53.132;6.574;2024-03-22T03:37:01;10.50;99.90
57753;DHT22;43583;53.132;6.574;2024-03-22T03:39:27;10.50;99.90
57753;DHT22;43583;53.132;6.574;2024-03-22T03:41:54;10.50;99.90
57753;DHT22;43583;53.132;6.574;2024-03-22T03:44:20;10.50;99.90
57753;DHT22;43583;53.132;6.574;2024-03-22T03:46:46;10.50;99.90
57753;DHT22;43583;53.132;6.574;2024-03-22T03:49:12;10.60;99.90
57753;DHT22;43583;53.132;6.574;2024-03-22T03:51:39;10.60;99.90
57753;DHT22;43583;53.132;6.574;2024-03-22T03:54:06;10.60;99.90
57753;DHT22;43583;53.132;6.574;2024-03-22T03:56:31;10.60;99.90
57753;DHT22;43583;53.132;6.574;2024-03-22T03:58:57;10.70;99.90
57753;DHT22;43583;53.132;6.574;2024-03-22T04:01:23;10.70;99.90
57753;DHT22;43583;53.132;6.574;2024-03-22T04:03:49;10.60;99.90
57753;DHT22;43583;53.132;6.574;2024-03-22T04:06:15;10.70;99.90
57753;DHT22;43583;53.132;6.574;2024-03-22T04:08:40;10.70;99.90
57753;DHT22;43583;53.132;6.574;2024-03-22T04:11:07;10.70;99.90
57753;DHT22;43583;53.132;6.574;2024-03-22T04:13:32;10.70;99.90
57753;DHT22;43583;53.132;6.574;2024-03-22T04:15:59;10.70;99.90
57753;DHT22;43583;53.132;6.574;2024-03-22T04:18:25;10.70;99.90
57753;DHT22;43583;53.132;6.574;2024-03-22T04:20:55;10.80;99.90
57753;DHT22;43583;53.132;6.574;2024-03-22T04:23:22;10.70;99.90
57753;DHT22;43583;53.132;6.574;2024-03-22T04:26:01;10.80;99.90
57753;DHT22;43583;53.132;6.574;2024-03-22T04:28:28;10.70;99.90
57753;DHT22;43583;53.132;6.574;2024-03-22T04:31:04;10.70;99.90
57753;DHT22;43583;53.132;6.574;2024-03-22T04:33:31;10.70;99.90
57753;DHT22;43583;53.132;6.574;2024-03-22T04:35:57;10.70;99.90
57753;DHT22;43583;53.132;6.574;2024-03-22T04:38:24;10.70;99.90
57753;DHT22;43583;53.132;6.574;2024-03-22T04:40:50;10.70;99.90
57753;DHT22;43583;53.132;6.574;2024-03-22T04:43:16;10.70;99.90
57753;DHT22;43583;53.132;6.574;2024-03-22T04:45:46;10.70;99.90
57753;DHT22;43583;53.132;6.574;2024-03-22T04:48:17;10.70;99.90
57753;DHT22;43583;53.132;6.574;2024-03-22T04:50:44;10.70;99.90
57753;DHT22;43583;53.132;6.574;2024-03-22T04:53:10;10.70;99.90
57753;DHT22;43583;53.132;6.574;2024-03-22T04:55:35;10.70;99.90
57753;DHT22;43583;53.132;6.574;2024-03-22T04:58:01;10.70;99.90
57753;DHT22;43583;53.132;6.574;2024-03-22T05:00:28;10.70;99.90
57753;DHT22;43583;53.132;6.574;2024-03-22T05:02:53;10.70;99.90
57753;DHT22;43583;53.132;6.574;2024-03-22T05:05:19;10.60;99.90
57753;DHT22;43583;53.132;6.574;2024-03-22T05:07:45;10.70;99.90
57753;DHT22;43583;53.132;6.574;2024-03-22T05:10:12;10.70;99.90
57753;DHT22;43583;53.132;6.574;2024-03-22T05:12:37;10.70;99.90
57753;DHT22;43583;53.132;6.574;2024-03-22T05:15:04;10.60;99.90
57753;DHT22;43583;53.132;6.574;2024-03-22T05:17:30;10.70;99.90
57753;DHT22;43583;53.132;6.574;2024-03-22T05:19:58;10.70;99.90
57753;DHT22;43583;53.132;6.574;2024-03-22T05:22:24;10.60;99.90
57753;DHT22;43583;53.132;6.574;2024-03-22T05:24:50;10.70;99.90
57753;DHT22;43583;53.132;6.574;2024-03-22T05:27:17;10.70;99.90
57753;DHT22;43583;53.132;6.574;2024-03-22T05:29:42;10.70;99.90
57753;DHT22;43583;53.132;6.574;2024-03-22T05:32:08;10.60;99.90
57753;DHT22;43583;53.132;6.574;2024-03-22T05:34:33;10.60;99.90
57753;DHT22;43583;53.132;6.574;2024-03-22T05:37:01;10.60;99.90
57753;DHT22;43583;53.132;6.574;2024-03-22T05:39:26;10.60;99.90
57753;DHT22;43583;53.132;6.574;2024-03-22T05:41:52;10.60;99.90
57753;DHT22;43583;53.132;6.574;2024-03-22T05:44:21;10.50;99.90
57753;DHT22;43583;53.132;6.574;2024-03-22T05:46:48;10.50;99.90
57753;DHT22;43583;53.132;6.574;2024-03-22T05:49:13;10.50;99.90
57753;DHT22;43583;53.132;6.574;2024-03-22T05:51:39;10.50;99.90
57753;DHT22;43583;53.132;6.574;2024-03-22T05:54:05;10.50;99.90
57753;DHT22;43583;53.132;6.574;2024-03-22T05:56:32;10.50;99.90
57753;DHT22;43583;53.132;6.574;2024-03-22T05:58:58;10.40;99.90
57753;DHT22;43583;53.132;6.574;2024-03-22T06:01:24;10.40;99.90
57753;DHT22;43583;53.132;6.574;2024-03-22T06:03:49;10.40;99.90
57753;DHT22;43583;53.132;6.574;2024-03-22T06:06:15;10.40;99.90
57753;DHT22;43583;53.132;6.574;2024-03-22T06:08:41;10.40;99.90
57753;DHT22;43583;53.132;6.574;2024-03-22T06:11:09;10.40;99.90
57753;DHT22;43583;53.132;6.574;2024-03-22T06:13:34;10.40;99.90
57753;DHT22;43583;53.132;6.574;2024-03-22T06:16:02;10.40;99.90
57753;DHT22;43583;53.132;6.574;2024-03-22T06:18:29;10.40;99.90
57753;DHT22;43583;53.132;6.574;2024-03-22T06:20:54;10.40;99.90
57753;DHT22;43583;53.132;6.574;2024-03-22T06:23:21;10.40;99.90
57753;DHT22;43583;53.132;6.574;2024-03-22T06:25:53;10.40;99.90
57753;DHT22;43583;53.132;6.574;2024-03-22T06:28:19;10.40;99.90
57753;DHT22;43583;53.132;6.574;2024-03-22T06:30:47;10.30;99.90
57753;DHT22;43583;53.132;6.574;2024-03-22T06:33:13;10.40;99.90
57753;DHT22;43583;53.132;6.574;2024-03-22T06:35:40;10.30;99.90
57753;DHT22;43583;53.132;6.574;2024-03-22T06:38:06;10.40;99.90
57753;DHT22;43583;53.132;6.574;2024-03-22T06:40:32;10.40;99.90
57753;DHT22;43583;53.132;6.574;2024-03-22T06:42:58;10.40;99.90
57753;DHT22;43583;53.132;6.574;2024-03-22T06:45:24;10.40;99.90
57753;DHT22;43583;53.132;6.574;2024-03-22T06:47:49;10.40;99.90
57753;DHT22;43583;53.132;6.574;2024-03-22T06:50:15;10.40;99.90
57753;DHT22;43583;53.132;6.574;2024-03-22T06:52:43;10.40;99.90
57753;DHT22;43583;53.132;6.574;2024-03-22T06:55:09;10.40;99.90
57753;DHT22;43583;53.132;6.574;2024-03-22T06:57:35;10.40;99.90
57753;DHT22;43583;53.132;6.574;2024-03-22T07:00:00;10.40;99.90
57753;DHT22;43583;53.132;6.574;2024-03-22T07:02:26;10.40;99.90
57753;DHT22;43583;53.132;6.574;2024-03-22T07:04:52;10.40;99.90
57753;DHT22;43583;53.132;6.574;2024-03-22T07:07:18;10.40;99.90
57753;DHT22;43583;53.132;6.574;2024-03-22T07:09:44;10.50;99.90
57753;DHT22;43583;53.132;6.574;2024-03-22T07:12:09;10.40;99.90
57753;DHT22;43583;53.132;6.574;2024-03-22T07:14:35;10.40;99.90
57753;DHT22;43583;53.132;6.574;2024-03-22T07:17:01;10.50;99.90
57753;DHT22;43583;53.132;6.574;2024-03-22T07:19:26;10.50;99.90
57753;DHT22;43583;53.132;6.574;2024-03-22T07:21:54;10.50;99.90
57753;DHT22;43583;53.132;6.574;2024-03-22T07:24:19;10.50;99.90
57753;DHT22;43583;53.132;6.574;2024-03-22T07:26:49;10.50;99.90
57753;DHT22;43583;53.132;6.574;2024-03-22T07:29:15;10.50;99.90
57753;DHT22;43583;53.132;6.574;2024-03-22T07:31:41;10.40;99.90
57753;DHT22;43583;53.132;6.574;2024-03-22T07:34:06;10.50;99.90
57753;DHT22;43583;53.132;6.574;2024-03-22T07:36:37;10.50;99.90
57753;DHT22;43583;53.132;6.574;2024-03-22T07:39:03;10.50;99.90
57753;DHT22;43583;53.132;6.574;2024-03-22T07:41:32;10.50;99.90
57753;DHT22;43583;53.132;6.574;2024-03-22T07:43:58;10.50;99.90
57753;DHT22;43583;53.132;6.574;2024-03-22T07:46:25;10.50;99.90
57753;DHT22;43583;53.132;6.574;2024-03-22T07:48:51;10.50;99.90
57753;DHT22;43583;53.132;6.574;2024-03-22T07:51:17;10.50;99.90
57753;DHT22;43583;53.132;6.574;2024-03-22T07:53:43;10.50;99.90
57753;DHT22;43583;53.132;6.574;2024-03-22T07:56:08;10.60;99.90
57753;DHT22;43583;53.132;6.574;2024-03-22T07:58:34;10.60;99.90
57753;DHT22;43583;53.132;6.574;2024-03-22T08:00:59;10.50;99.90
57753;DHT22;43583;53.132;6.574;2024-03-22T08:03:25;10.60;99.90
57753;DHT22;43583;53.132;6.574;2024-03-22T08:05:50;10.60;99.90
57753;DHT22;43583;53.132;6.574;2024-03-22T08:08:16;10.60;99.90
57753;DHT22;43583;53.132;6.574;2024-03-22T08:10:43;10.60;99.90
57753;DHT22;43583;53.132;6.574;2024-03-22T08:13:08;10.60;99.90
57753;DHT22;43583;53.132;6.574;2024-03-22T08:15:35;10.70;99.90
57753;DHT22;43583;53.132;6.574;2024-03-22T08:18:01;10.70;99.90
57753;DHT22;43583;53.132;6.574;2024-03-22T08:20:26;10.70;99.90
57753;DHT22;43583;53.132;6.574;2024-03-22T08:22:52;10.70;99.90
57753;DHT22;43583;53.132;6.574;2024-03-22T08:25:18;10.70;99.90
57753;DHT22;43583;53.132;6.574;2024-03-22T08:27:46;10.70;99.90
57753;DHT22;43583;53.132;6.574;2024-03-22T08:30:12;10.70;99.90
57753;DHT22;43583;53.132;6.574;2024-03-22T08:32:38;10.80;99.90
57753;DHT22;43583;53.132;6.574;2024-03-22T08:35:04;10.80;99.90
57753;DHT22;43583;53.132;6.574;2024-03-22T08:37:30;10.80;99.90
57753;DHT22;43583;53.132;6.574;2024-03-22T08:39:56;10.90;99.90
57753;DHT22;43583;53.132;6.574;2024-03-22T08:42:22;10.90;99.90
57753;DHT22;43583;53.132;6.574;2024-03-22T08:44:47;10.90;99.90
57753;DHT22;43583;53.132;6.574;2024-03-22T08:47:13;10.90;99.90
57753;DHT22;43583;53.132;6.574;2024-03-22T08:49:39;10.80;99.90
57753;DHT22;43583;53.132;6.574;2024-03-22T08:52:06;10.90;99.90
57753;DHT22;43583;53.132;6.574;2024-03-22T08:54:32;10.90;99.90
57753;DHT22;43583;53.132;6.574;2024-03-22T08:56:58;10.90;99.90
57753;DHT22;43583;53.132;6.574;2024-03-22T08:59:23;10.90;99.90
57753;DHT22;43583;53.132;6.574;2024-03-22T09:01:50;10.90;99.90
57753;DHT22;43583;53.132;6.574;2024-03-22T09:04:16;11.00;99.90
57753;DHT22;43583;53.132;6.574;2024-03-22T09:06:41;11.00;99.90
57753;DHT22;43583;53.132;6.574;2024-03-22T09:09:07;11.00;99.90
57753;DHT22;43583;53.132;6.574;2024-03-22T09:11:33;11.00;99.90
57753;DHT22;43583;53.132;6.574;2024-03-22T09:13:59;11.00;99.90
57753;DHT22;43583;53.132;6.574;2024-03-22T09:16:24;11.00;99.90
57753;DHT22;43583;53.132;6.574;2024-03-22T09:18:50;11.00;99.90
57753;DHT22;43583;53.132;6.574;2024-03-22T09:21:16;11.00;99.90
57753;DHT22;43583;53.132;6.574;2024-03-22T09:23:42;11.00;99.90
57753;DHT22;43583;53.132;6.574;2024-03-22T09:26:07;11.00;99.90
57753;DHT22;43583;53.132;6.574;2024-03-22T09:28:33;11.00;99.90
57753;DHT22;43583;53.132;6.574;2024-03-22T09:31:04;11.00;99.90
57753;DHT22;43583;53.132;6.574;2024-03-22T09:33:35;11.00;99.90
57753;DHT22;43583;53.132;6.574;2024-03-22T09:36:01;11.00;99.90
57753;DHT22;43583;53.132;6.574;2024-03-22T09:38:27;11.00;99.90
57753;DHT22;43583;53.132;6.574;2024-03-22T09:40:54;11.00;99.90
57753;DHT22;43583;53.132;6.574;2024-03-22T09:43:23;11.00;99.90
57753;DHT22;43583;53.132;6.574;2024-03-22T09:45:52;11.00;99.90
57753;DHT22;43583;53.132;6.574;2024-03-22T09:48:18;11.00;99.90
57753;DHT22;43583;53.132;6.574;2024-03-22T09:50:46;11.00;99.90
57753;DHT22;43583;53.132;6.574;2024-03-22T09:53:19;10.90;99.90
57753;DHT22;43583;53.132;6.574;2024-03-22T09:55:47;11.00;99.90
57753;DHT22;43583;53.132;6.574;2024-03-22T09:58:12;11.00;99.90
57753;DHT22;43583;53.132;6.574;2024-03-22T10:00:38;11.00;99.90
57753;DHT22;43583;53.132;6.574;2024-03-22T10:03:04;10.90;99.90
57753;DHT22;43583;53.132;6.574;2024-03-22T10:05:30;11.00;99.90
57753;DHT22;43583;53.132;6.574;2024-03-22T10:07:56;11.10;99.90
57753;DHT22;43583;53.132;6.574;2024-03-22T10:10:22;11.10;99.90
57753;DHT22;43583;53.132;6.574;2024-03-22T10:12:48;11.10;99.90
57753;DHT22;43583;53.132;6.574;2024-03-22T10:15:14;11.10;99.90
57753;DHT22;43583;53.132;6.574;2024-03-22T10:17:41;11.20;99.90
57753;DHT22;43583;53.132;6.574;2024-03-22T10:20:07;11.10;99.90
57753;DHT22;43583;53.132;6.574;2024-03-22T10:22:50;11.10;99.90
57753;DHT22;43583;53.132;6.574;2024-03-22T10:25:20;11.20;99.90
57753;DHT22;43583;53.132;6.574;2024-03-22T10:27:45;11.20;99.90
57753;DHT22;43583;53.132;6.574;2024-03-22T10:30:12;11.30;99.90
57753;DHT22;43583;53.132;6.574;2024-03-22T10:32:40;11.30;99.90
57753;DHT22;43583;53.132;6.574;2024-03-22T10:35:07;11.30;99.90
57753;DHT22;43583;53.132;6.574;2024-03-22T10:37:34;11.40;99.90
57753;DHT22;43583;53.132;6.574;2024-03-22T10:40:03;11.40;99.90
57753;DHT22;43583;53.132;6.574;2024-03-22T10:42:40;11.40;99.90
57753;DHT22;43583;53.132;6.574;2024-03-22T10:45:08;11.40;99.90
57753;DHT22;43583;53.132;6.574;2024-03-22T10:47:35;11.50;99.90
57753;DHT22;43583;53.132;6.574;2024-03-22T10:52:48;11.50;99.90
57753;DHT22;43583;53.132;6.574;2024-03-22T10:55:24;11.50;99.90
57753;DHT22;43583;53.132;6.574;2024-03-22T10:57:53;11.50;99.90
57753;DHT22;43583;53.132;6.574;2024-03-22T11:00:30;11.60;99.90
57753;DHT22;43583;53.132;6.574;2024-03-22T11:02:56;11.70;99.90
57753;DHT22;43583;53.132;6.574;2024-03-22T11:05:22;11.70;99.90
57753;DHT22;43583;53.132;6.574;2024-03-22T11:07:58;11.70;99.90
57753;DHT22;43583;53.132;6.574;2024-03-22T11:10:28;11.80;99.90
57753;DHT22;43583;53.132;6.574;2024-03-22T11:12:55;11.80;99.90
57753;DHT22;43583;53.132;6.574;2024-03-22T11:15:22;11.90;99.90
57753;DHT22;43583;53.132;6.574;2024-03-22T11:17:47;11.90;99.90
57753;DHT22;43583;53.132;6.574;2024-03-22T11:20:15;11.80;99.90
57753;DHT22;43583;53.132;6.574;2024-03-22T11:22:41;11.80;99.90
57753;DHT22;43583;53.132;6.574;2024-03-22T11:25:07;11.80;99.90
57753;DHT22;43583;53.132;6.574;2024-03-22T11:27:33;11.90;99.90
57753;DHT22;43583;53.132;6.574;2024-03-22T11:29:58;12.00;99.90
57753;DHT22;43583;53.132;6.574;2024-03-22T11:32:24;12.00;99.90
57753;DHT22;43583;53.132;6.574;2024-03-22T11:34:50;12.10;99.90
57753;DHT22;43583;53.132;6.574;2024-03-22T11:37:15;12.10;99.90
57753;DHT22;43583;53.132;6.574;2024-03-22T11:39:41;12.10;99.90
57753;DHT22;43583;53.132;6.574;2024-03-22T11:42:08;12.00;99.90
57753;DHT22;43583;53.132;6.574;2024-03-22T11:44:36;12.00;99.90
57753;DHT22;43583;53.132;6.574;2024-03-22T11:47:03;12.00;99.90
57753;DHT22;43583;53.132;6.574;2024-03-22T11:49:29;12.00;99.90
57753;DHT22;43583;53.132;6.574;2024-03-22T11:51:56;11.90;99.90
57753;DHT22;43583;53.132;6.574;2024-03-22T11:54:22;11.90;99.90
57753;DHT22;43583;53.132;6.574;2024-03-22T11:56:49;11.90;99.90
57753;DHT22;43583;53.132;6.574;2024-03-22T11:59:14;12.00;99.90
57753;DHT22;43583;53.132;6.574;2024-03-22T12:01:40;11.90;99.90
57753;DHT22;43583;53.132;6.574;2024-03-22T12:04:06;11.80;99.90
57753;DHT22;43583;53.132;6.574;2024-03-22T12:06:36;11.80;99.90
57753;DHT22;43583;53.132;6.574;2024-03-22T12:09:02;11.80;99.90
57753;DHT22;43583;53.132;6.574;2024-03-22T12:11:29;11.70;99.90
57753;DHT22;43583;53.132;6.574;2024-03-22T12:13:54;11.70;99.90
57753;DHT22;43583;53.132;6.574;2024-03-22T12:16:20;11.60;99.90
57753;DHT22;43583;53.132;6.574;2024-03-22T12:18:46;11.50;99.90
57753;DHT22;43583;53.132;6.574;2024-03-22T12:21:11;11.50;99.90
57753;DHT22;43583;53.132;6.574;2024-03-22T12:23:37;11.50;99.90
57753;DHT22;43583;53.132;6.574;2024-03-22T12:26:03;11.60;99.90
57753;DHT22;43583;53.132;6.574;2024-03-22T12:28:28;11.70;99.90
57753;DHT22;43583;53.132;6.574;2024-03-22T12:30:54;11.80;99.90
57753;DHT22;43583;53.132;6.574;2024-03-22T12:33:19;11.80;99.90
57753;DHT22;43583;53.132;6.574;2024-03-22T12:35:45;11.90;99.90
57753;DHT22;43583;53.132;6.574;2024-03-22T12:38:12;12.00;99.90
57753;DHT22;43583;53.132;6.574;2024-03-22T12:40:39;12.10;99.90
57753;DHT22;43583;53.132;6.574;2024-03-22T12:43:05;12.30;99.90
57753;DHT22;43583;53.132;6.574;2024-03-22T12:45:31;12.30;99.90
57753;DHT22;43583;53.132;6.574;2024-03-22T12:47:58;12.40;99.90
57753;DHT22;43583;53.132;6.574;2024-03-22T12:50:24;12.40;99.90
57753;DHT22;43583;53.132;6.574;2024-03-22T12:52:50;12.30;99.90
57753;DHT22;43583;53.132;6.574;2024-03-22T12:55:16;12.20;99.90
57753;DHT22;43583;53.132;6.574;2024-03-22T12:57:41;12.10;99.90
57753;DHT22;43583;53.132;6.574;2024-03-22T13:00:08;12.00;99.90
57753;DHT22;43583;53.132;6.574;2024-03-22T13:02:41;11.90;99.90
57753;DHT22;43583;53.132;6.574;2024-03-22T13:05:07;11.70;99.90
57753;DHT22;43583;53.132;6.574;2024-03-22T13:07:34;11.60;99.90
57753;DHT22;43583;53.132;6.574;2024-03-22T13:10:00;11.50;99.90
57753;DHT22;43583;53.132;6.574;2024-03-22T13:12:26;11.50;99.90
57753;DHT22;43583;53.132;6.574;2024-03-22T13:14:52;11.40;99.90
57753;DHT22;43583;53.132;6.574;2024-03-22T13:17:18;11.30;99.90
57753;DHT22;43583;53.132;6.574;2024-03-22T13:19:44;11.40;99.90
57753;DHT22;43583;53.132;6.574;2024-03-22T13:22:09;11.40;99.90
57753;DHT22;43583;53.132;6.574;2024-03-22T13:24:35;11.50;99.90
57753;DHT22;43583;53.132;6.574;2024-03-22T13:27:01;11.50;99.90
57753;DHT22;43583;53.132;6.574;2024-03-22T13:29:28;11.50;99.90
57753;DHT22;43583;53.132;6.574;2024-03-22T13:31:54;11.50;99.90
57753;DHT22;43583;53.132;6.574;2024-03-22T13:34:20;11.40;99.90
57753;DHT22;43583;53.132;6.574;2024-03-22T13:36:46;11.50;99.90
57753;DHT22;43583;53.132;6.574;2024-03-22T13:39:12;11.50;99.90
57753;DHT22;43583;53.132;6.574;2024-03-22T13:41:41;11.40;99.90
57753;DHT22;43583;53.132;6.574;2024-03-22T13:44:07;11.30;99.90
57753;DHT22;43583;53.132;6.574;2024-03-22T13:46:34;11.30;99.90
57753;DHT22;43583;53.132;6.574;2024-03-22T13:49:03;11.30;99.90
57753;DHT22;43583;53.132;6.574;2024-03-22T13:51:30;11.30;99.90
57753;DHT22;43583;53.132;6.574;2024-03-22T13:53:57;11.20;99.90
57753;DHT22;43583;53.132;6.574;2024-03-22T13:56:22;11.20;99.90
57753;DHT22;43583;53.132;6.574;2024-03-22T13:58:48;11.20;99.90
57753;DHT22;43583;53.132;6.574;2024-03-22T14:01:14;11.10;99.90
57753;DHT22;43583;53.132;6.574;2024-03-22T14:03:40;11.10;99.90
57753;DHT22;43583;53.132;6.574;2024-03-22T14:06:06;11.00;99.90
57753;DHT22;43583;53.132;6.574;2024-03-22T14:08:32;11.00;99.90
57753;DHT22;43583;53.132;6.574;2024-03-22T14:10:58;11.00;99.90
57753;DHT22;43583;53.132;6.574;2024-03-22T14:13:23;11.00;99.90
57753;DHT22;43583;53.132;6.574;2024-03-22T14:15:49;11.10;99.90
57753;DHT22;43583;53.132;6.574;2024-03-22T14:18:15;11.10;99.90
57753;DHT22;43583;53.132;6.574;2024-03-22T14:20:40;11.20;99.90
57753;DHT22;43583;53.132;6.574;2024-03-22T14:23:07;11.20;99.90
57753;DHT22;43583;53.132;6.574;2024-03-22T14:25:32;11.20;99.90
57753;DHT22;43583;53.132;6.574;2024-03-22T14:27:58;11.20;99.90
57753;DHT22;43583;53.132;6.574;2024-03-22T14:30:24;11.20;99.90
57753;DHT22;43583;53.132;6.574;2024-03-22T14:32:50;11.20;99.90
57753;DHT22;43583;53.132;6.574;2024-03-22T14:35:17;11.20;99.90
57753;DHT22;43583;53.132;6.574;2024-03-22T14:37:43;11.30;99.90
57753;DHT22;43583;53.132;6.574;2024-03-22T14:40:09;11.20;99.90
57753;DHT22;43583;53.132;6.574;2024-03-22T14:42:37;11.20;99.90
57753;DHT22;43583;53.132;6.574;2024-03-22T14:45:03;11.10;99.90
57753;DHT22;43583;53.132;6.574;2024-03-22T14:47:29;11.00;99.90
57753;DHT22;43583;53.132;6.574;2024-03-22T14:49:54;11.00;99.90
57753;DHT22;43583;53.132;6.574;2024-03-22T14:52:20;10.90;99.90
57753;DHT22;43583;53.132;6.574;2024-03-22T14:54:47;10.80;99.90
57753;DHT22;43583;53.132;6.574;2024-03-22T14:57:13;10.80;99.90
57753;DHT22;43583;53.132;6.574;2024-03-22T14:59:39;10.80;99.90
57753;DHT22;43583;53.132;6.574;2024-03-22T15:02:05;10.70;99.90
57753;DHT22;43583;53.132;6.574;2024-03-22T15:04:31;10.60;99.90
57753;DHT22;43583;53.132;6.574;2024-03-22T15:06:56;10.60;99.90
57753;DHT22;43583;53.132;6.574;2024-03-22T15:09:22;10.40;99.90
57753;DHT22;43583;53.132;6.574;2024-03-22T15:11:49;10.40;99.90
57753;DHT22;43583;53.132;6.574;2024-03-22T15:14:15;10.30;99.90
57753;DHT22;43583;53.132;6.574;2024-03-22T15:16:42;10.30;99.90
57753;DHT22;43583;53.132;6.574;2024-03-22T15:19:10;10.30;99.90
57753;DHT22;43583;53.132;6.574;2024-03-22T15:21:37;10.30;99.90
57753;DHT22;43583;53.132;6.574;2024-03-22T15:24:03;10.30;99.90
57753;DHT22;43583;53.132;6.574;2024-03-22T15:26:29;10.30;99.90
57753;DHT22;43583;53.132;6.574;2024-03-22T15:28:55;10.30;99.90